createdAt,value
2022-09-12T04:01:25.385Z,92.10
2022-09-12T04:05:37.110Z,92.77
2022-09-12T04:09:48.835Z,92.96
2022-09-12T04:14:01.389Z,93.56
2022-09-12T04:18:12.870Z,93.05
2022-09-12T04:22:24.364Z,93.91
2022-09-12T04:26:35.867Z,93.56
2022-09-12T04:30:47.400Z,94.14
2022-09-12T04:34:58.955Z,94.04
2022-09-12T04:39:11.275Z,93.91
2022-09-12T04:43:22.755Z,93.67
2022-09-12T04:47:34.366Z,94.15
2022-09-12T04:51:46.662Z,93.63
2022-09-12T04:56:02.093Z,94.25
2022-09-12T05:00:14.849Z,94.70
2022-09-12T05:04:26.409Z,94.31
2022-09-12T05:08:38.409Z,94.16
2022-09-12T05:12:49.874Z,93.96
2022-09-12T05:17:02.180Z,94.19
2022-09-12T05:21:16.010Z,93.60
2022-09-12T05:25:27.476Z,91.40
2022-09-12T05:29:38.939Z,91.75
2022-09-12T05:33:52.021Z,92.35
2022-09-12T05:38:04.101Z,91.56
2022-09-12T05:42:15.637Z,91.70
2022-09-12T05:46:29.429Z,91.89
2022-09-12T05:50:42.392Z,91.50
2022-09-12T05:54:53.911Z,90.92
2022-09-12T05:59:08.304Z,90.65
2022-09-12T06:03:19.778Z,89.83
2022-09-12T06:07:32.601Z,90.67
2022-09-12T06:11:45.666Z,90.98
2022-09-12T06:16:09.854Z,88.60
2022-09-12T06:20:21.557Z,88.50
2022-09-12T06:24:33.014Z,88.08
2022-09-12T06:28:45.153Z,87.92
2022-09-12T06:32:56.998Z,89.01
2022-09-12T06:37:08.470Z,89.07
2022-09-12T06:41:19.963Z,87.93
2022-09-12T06:45:31.463Z,88.20
2022-09-12T06:49:42.991Z,83.54
2022-09-12T06:53:57.043Z,71.57
2022-09-12T06:58:08.510Z,62.54
2022-09-12T07:02:20.061Z,61.16
2022-09-12T07:06:36.934Z,59.04
2022-09-12T07:10:48.560Z,63.91
2022-09-12T07:15:00.137Z,66.68
2022-09-12T07:19:12.045Z,68.79
2022-09-12T07:23:23.637Z,69.60
2022-09-12T07:27:35.144Z,70.40
2022-09-12T07:31:46.643Z,71.72
2022-09-12T07:36:06.157Z,74.37
2022-09-12T07:40:17.687Z,73.20
2022-09-12T07:44:29.584Z,73.28
2022-09-12T07:48:41.071Z,73.93
2022-09-12T07:52:55.012Z,75.36
2022-09-12T07:57:06.675Z,75.48
2022-09-12T08:01:25.045Z,76.36
2022-09-12T08:05:37.087Z,77.43
2022-09-12T08:09:48.623Z,78.17
2022-09-12T08:14:02.871Z,79.23
2022-09-12T08:18:15.063Z,79.01
2022-09-12T08:22:26.570Z,79.91
2022-09-12T08:26:38.121Z,77.84
2022-09-12T08:30:50.090Z,77.90
2022-09-12T08:35:01.715Z,79.37
2022-09-12T08:39:14.395Z,80.23
2022-09-12T08:43:43.250Z,78.54
2022-09-12T08:47:56.454Z,78.30
2022-09-12T08:52:17.111Z,78.10
2022-09-12T08:56:33.048Z,77.09
2022-09-12T09:01:08.943Z,76.83
2022-09-12T09:05:31.613Z,77.61
2022-09-12T09:10:01.618Z,76.72
2022-09-12T09:14:41.415Z,76.27
2022-09-12T09:18:55.794Z,75.63
2022-09-12T09:23:17.775Z,74.98
2022-09-12T09:27:43.966Z,75.71
2022-09-12T09:31:59.248Z,73.99
2022-09-12T09:36:20.950Z,72.99
2022-09-12T09:40:52.773Z,70.57
2022-09-12T09:45:15.552Z,68.60
2022-09-12T09:49:30.119Z,68.58
2022-09-12T09:53:54.814Z,68.26
2022-09-12T09:58:06.593Z,65.18
2022-09-12T10:02:24.287Z,65.33
2022-09-12T10:06:37.871Z,63.70
2022-09-12T10:11:04.529Z,63.13
2022-09-12T10:15:19.400Z,64.01
2022-09-12T10:19:36.827Z,64.32
2022-09-12T10:23:53.900Z,63.93
2022-09-12T10:28:06.553Z,64.87
2022-09-12T10:32:36.194Z,63.31
2022-09-12T10:36:47.856Z,62.06
2022-09-12T10:41:11.400Z,59.93
2022-09-12T10:45:31.976Z,60.10
2022-09-12T10:49:43.605Z,60.53
2022-09-12T10:53:59.870Z,59.54
2022-09-12T10:58:18.178Z,58.75
2022-09-12T11:02:48.134Z,58.85
2022-09-12T11:07:21.397Z,59.03
2022-09-12T11:11:48.520Z,55.99
2022-09-12T11:16:17.032Z,53.42
2022-09-12T11:20:35.828Z,53.56
2022-09-12T11:25:18.574Z,55.28
2022-09-12T11:29:51.093Z,53.14
2022-09-12T11:34:08.972Z,51.66
2022-09-12T11:38:47.995Z,52.14
2022-09-12T11:43:10.093Z,52.33
2022-09-12T11:47:23.266Z,50.95
2022-09-12T11:51:37.614Z,50.22
2022-09-12T11:56:02.679Z,48.91
2022-09-12T12:00:28.759Z,48.41
2022-09-12T12:04:54.372Z,48.66
2022-09-12T12:09:05.917Z,46.99
2022-09-12T12:13:42.262Z,47.53
2022-09-12T12:18:06.998Z,46.79
2022-09-12T12:22:22.362Z,47.73
2022-09-12T12:26:42.448Z,46.26
2022-09-12T12:30:53.998Z,45.53
2022-09-12T12:35:38.444Z,46.52
2022-09-12T12:39:50.918Z,46.34
2022-09-12T12:44:40.757Z,45.86
2022-09-12T12:48:56.670Z,44.78
2022-09-12T12:53:22.528Z,43.96
2022-09-12T12:57:39.491Z,42.29
2022-09-12T13:01:55.949Z,43.49
2022-09-12T13:06:19.691Z,42.72
2022-09-12T13:10:31.450Z,43.26
2022-09-12T13:14:44.434Z,42.71
2022-09-12T13:19:01.250Z,42.95
2022-09-12T13:23:43.116Z,43.47
2022-09-12T13:28:12.867Z,43.64
2022-09-12T13:32:24.908Z,40.86
2022-09-12T13:36:45.295Z,41.72
2022-09-12T13:41:34.055Z,42.11
2022-09-12T13:45:47.187Z,41.88
2022-09-12T13:50:00.328Z,41.95
2022-09-12T13:54:22.515Z,40.37
2022-09-12T13:58:35.941Z,39.61
2022-09-12T14:03:10.629Z,41.34
2022-09-12T14:07:25.615Z,38.79
2022-09-12T14:11:38.030Z,39.61
2022-09-12T14:15:52.953Z,38.99
2022-09-12T14:20:24.243Z,39.88
2022-09-12T14:24:35.717Z,41.06
2022-09-12T14:28:47.829Z,41.02
2022-09-12T14:33:11.529Z,40.92
2022-09-12T14:37:24.912Z,42.37
2022-09-12T14:41:40.228Z,40.74
2022-09-12T14:45:54.236Z,40.96
2022-09-12T14:50:20.074Z,41.41
2022-09-12T14:54:32.884Z,42.07
2022-09-12T14:58:44.662Z,41.48
2022-09-12T15:03:23.475Z,42.12
2022-09-12T15:07:36.298Z,41.61
2022-09-12T15:11:47.759Z,40.14
2022-09-12T15:15:59.781Z,39.45
2022-09-12T15:20:13.197Z,40.64
2022-09-12T15:24:24.648Z,41.11
2022-09-12T15:28:36.121Z,40.33
2022-09-12T15:32:47.733Z,40.37
2022-09-12T15:36:59.188Z,40.33
2022-09-12T15:41:17.555Z,39.51
2022-09-12T15:45:34.619Z,40.13
2022-09-12T15:49:46.061Z,40.44
2022-09-12T15:53:57.526Z,40.70
2022-09-12T15:58:09.080Z,41.03
2022-09-12T16:02:20.594Z,40.21
2022-09-12T16:06:37.264Z,40.29
2022-09-12T16:10:54.076Z,40.09
2022-09-12T16:15:06.013Z,40.52
2022-09-12T16:19:17.470Z,40.66
2022-09-12T16:23:28.931Z,42.38
2022-09-12T16:27:40.688Z,40.43
2022-09-12T16:31:52.251Z,41.85
2022-09-12T16:36:09.370Z,42.86
2022-09-12T16:40:20.860Z,41.90
2022-09-12T16:44:32.366Z,42.12
2022-09-12T16:48:49.582Z,41.75
2022-09-12T16:53:03.177Z,44.18
2022-09-12T16:57:14.775Z,42.34
2022-09-12T17:01:26.942Z,43.43
2022-09-12T17:05:39.017Z,45.34
2022-09-12T17:09:51.774Z,45.06
2022-09-12T17:14:06.913Z,47.85
2022-09-12T17:18:18.825Z,50.87
2022-09-12T17:22:30.297Z,52.45
2022-09-12T17:26:41.917Z,53.34
2022-09-12T17:30:59.433Z,54.83
2022-09-12T17:35:11.468Z,56.44
2022-09-12T17:39:22.941Z,58.74
2022-09-12T17:43:37.839Z,60.35
2022-09-12T17:47:49.644Z,61.72
2022-09-12T17:52:01.902Z,63.90
2022-09-12T17:56:13.397Z,64.34
2022-09-12T18:00:44.824Z,64.76
2022-09-12T18:04:56.325Z,65.54
2022-09-12T18:09:09.548Z,66.87
2022-09-12T18:13:21.028Z,66.67
2022-09-12T18:17:33.169Z,68.11
2022-09-12T18:21:44.794Z,68.43
2022-09-12T18:26:04.881Z,68.10
2022-09-12T18:30:21.402Z,69.21
2022-09-12T18:34:33.377Z,69.54
2022-09-12T18:38:45.408Z,70.29
2022-09-12T18:42:56.910Z,70.53
2022-09-12T18:47:09.290Z,71.11
2022-09-12T18:51:32.756Z,71.62
2022-09-12T18:55:44.278Z,71.54
2022-09-12T18:59:59.466Z,71.94
2022-09-12T19:04:12.635Z,72.19
2022-09-12T19:08:24.097Z,72.57
2022-09-12T19:12:35.901Z,73.17
2022-09-12T19:16:47.586Z,73.83
2022-09-12T19:20:59.054Z,73.95
2022-09-12T19:25:10.528Z,74.34
2022-09-12T19:29:22.021Z,74.16
2022-09-12T19:33:33.517Z,74.83
2022-09-12T19:37:45.421Z,75.31
2022-09-12T19:41:56.920Z,75.58
2022-09-12T19:46:08.515Z,75.92
2022-09-12T19:50:20.030Z,76.57
2022-09-12T19:54:31.513Z,76.76
2022-09-12T19:58:45.309Z,76.80
2022-09-12T20:02:56.825Z,77.06
2022-09-12T20:07:08.326Z,77.09
2022-09-12T20:11:21.732Z,77.62
2022-09-12T20:15:33.564Z,78.12
2022-09-12T20:19:45.084Z,77.96
2022-09-12T20:24:12.074Z,78.44
2022-09-12T20:28:23.577Z,78.79
2022-09-12T20:32:35.080Z,78.53
2022-09-12T20:36:47.564Z,78.43
2022-09-12T20:41:01.594Z,78.90
2022-09-12T20:45:13.066Z,79.29
2022-09-12T20:49:24.575Z,79.41
2022-09-12T20:53:36.042Z,79.66
2022-09-12T20:57:49.924Z,79.84
2022-09-12T21:02:01.474Z,80.07
2022-09-12T21:06:16.839Z,80.72
2022-09-12T21:10:29.335Z,80.28
2022-09-12T21:14:40.829Z,80.70
2022-09-12T21:18:55.192Z,80.54
2022-09-12T21:23:06.661Z,80.80
2022-09-12T21:27:18.155Z,81.11
